Ekin, Indiana
Current Conditions -  °F | °C
As of 10:55 AM on Friday 31 Oct 2014 (Local Time) from KTYQ Reporting Station
Light Rain Light Rain  
Wind Chill: 31°   Ceiling: 1100
Heat Index: 39°   Visibility: 10mi
Dew Point: 34°   Wind: 12mph
Humidity: 84%   Direction: 330°NNW
Pressure: 30.02"   Gusts: 24mph
Location:  40.1832°N, 85.9359°W
Report Text: KTYQ 311455Z AUTO 33010G21KT 10SM -RA BKN011 OVC018 04/01 A3002 RMK AO2 P0004 60007 T00370013
Loading
Personal Weather Stations






























Interactive Weather Map New forecast layout! Learn more

10-Day Weather Forecast

Advertisements
Track Severe Weather on mobile